sensor_id;sensor_type;location;lat;lon;timestamp;temperature;humidity
66144;SHT31;52947;50.842;6.084;2022-08-19T00:01:42;18.36;78.12
66144;SHT31;52947;50.842;6.084;2022-08-19T00:04:17;18.38;77.85
66144;SHT31;52947;50.842;6.084;2022-08-19T00:06:46;18.43;77.87
66144;SHT31;52947;50.842;6.084;2022-08-19T00:09:16;18.50;77.73
66144;SHT31;52947;50.842;6.084;2022-08-19T00:11:45;18.58;77.32
66144;SHT31;52947;50.842;6.084;2022-08-19T00:14:15;18.60;77.37
66144;SHT31;52947;50.842;6.084;2022-08-19T00:16:45;18.51;77.44
66144;SHT31;52947;50.842;6.084;2022-08-19T00:19:15;18.48;77.94
66144;SHT31;52947;50.842;6.084;2022-08-19T00:21:43;18.41;78.03
66144;SHT31;52947;50.842;6.084;2022-08-19T00:24:13;18.41;78.03
66144;SHT31;52947;50.842;6.084;2022-08-19T00:26:43;18.30;78.23
66144;SHT31;52947;50.842;6.084;2022-08-19T00:29:14;18.45;77.74
66144;SHT31;52947;50.842;6.084;2022-08-19T00:31:42;18.40;77.91
66144;SHT31;52947;50.842;6.084;2022-08-19T00:34:10;18.40;77.85
66144;SHT31;52947;50.842;6.084;2022-08-19T00:36:40;18.47;77.63
66144;SHT31;52947;50.842;6.084;2022-08-19T00:39:09;18.38;77.96
66144;SHT31;52947;50.842;6.084;2022-08-19T00:41:37;18.43;77.67
66144;SHT31;52947;50.842;6.084;2022-08-19T00:44:08;18.48;77.71
66144;SHT31;52947;50.842;6.084;2022-08-19T00:46:39;18.38;77.64
66144;SHT31;52947;50.842;6.084;2022-08-19T00:49:12;18.24;78.40
66144;SHT31;52947;50.842;6.084;2022-08-19T00:51:45;18.24;78.28
66144;SHT31;52947;50.842;6.084;2022-08-19T00:54:15;18.16;78.54
66144;SHT31;52947;50.842;6.084;2022-08-19T00:56:43;18.11;78.79
66144;SHT31;52947;50.842;6.084;2022-08-19T00:59:13;18.06;79.19
66144;SHT31;52947;50.842;6.084;2022-08-19T01:02:02;18.14;78.48
66144;SHT31;52947;50.842;6.084;2022-08-19T01:04:30;18.20;78.76
66144;SHT31;52947;50.842;6.084;2022-08-19T01:07:01;18.14;78.74
66144;SHT31;52947;50.842;6.084;2022-08-19T01:09:29;18.20;78.85
66144;SHT31;52947;50.842;6.084;2022-08-19T01:11:58;18.11;78.76
66144;SHT31;52947;50.842;6.084;2022-08-19T01:14:27;18.07;79.17
66144;SHT31;52947;50.842;6.084;2022-08-19T01:16:55;18.17;78.70
66144;SHT31;52947;50.842;6.084;2022-08-19T01:19:27;18.26;78.32
66144;SHT31;52947;50.842;6.084;2022-08-19T01:22:15;18.27;78.50
66144;SHT31;52947;50.842;6.084;2022-08-19T01:24:53;18.34;78.10
66144;SHT31;52947;50.842;6.084;2022-08-19T01:27:22;18.48;77.47
66144;SHT31;52947;50.842;6.084;2022-08-19T01:29:50;18.51;77.47
66144;SHT31;52947;50.842;6.084;2022-08-19T01:32:18;18.48;77.44
66144;SHT31;52947;50.842;6.084;2022-08-19T01:35:00;18.43;77.67
66144;SHT31;52947;50.842;6.084;2022-08-19T01:37:29;18.31;77.76
66144;SHT31;52947;50.842;6.084;2022-08-19T01:39:59;18.34;77.88
66144;SHT31;52947;50.842;6.084;2022-08-19T01:42:31;18.31;77.99
66144;SHT31;52947;50.842;6.084;2022-08-19T01:44:59;18.27;78.17
66144;SHT31;52947;50.842;6.084;2022-08-19T01:47:27;18.09;78.86
66144;SHT31;52947;50.842;6.084;2022-08-19T01:49:55;17.99;79.12
66144;SHT31;52947;50.842;6.084;2022-08-19T01:52:25;18.06;78.84
66144;SHT31;52947;50.842;6.084;2022-08-19T01:54:53;18.16;78.63
66144;SHT31;52947;50.842;6.084;2022-08-19T01:57:23;18.21;78.26
66144;SHT31;52947;50.842;6.084;2022-08-19T01:59:50;18.29;77.90
66144;SHT31;52947;50.842;6.084;2022-08-19T02:02:19;18.29;78.17
66144;SHT31;52947;50.842;6.084;2022-08-19T02:04:47;18.29;77.88
66144;SHT31;52947;50.842;6.084;2022-08-19T02:07:15;18.26;77.93
66144;SHT31;52947;50.842;6.084;2022-08-19T02:09:46;18.00;79.04
66144;SHT31;52947;50.842;6.084;2022-08-19T02:12:14;17.97;78.89
66144;SHT31;52947;50.842;6.084;2022-08-19T02:14:44;17.70;79.53
66144;SHT31;52947;50.842;6.084;2022-08-19T02:17:11;17.69;80.00
66144;SHT31;52947;50.842;6.084;2022-08-19T02:19:39;17.69;80.08
66144;SHT31;52947;50.842;6.084;2022-08-19T02:22:07;17.62;80.66
66144;SHT31;52947;50.842;6.084;2022-08-19T02:24:35;17.65;81.44
66144;SHT31;52947;50.842;6.084;2022-08-19T02:27:03;17.56;81.30
66144;SHT31;52947;50.842;6.084;2022-08-19T02:29:32;17.58;81.26
66144;SHT31;52947;50.842;6.084;2022-08-19T02:32:03;17.51;81.09
66144;SHT31;52947;50.842;6.084;2022-08-19T02:34:31;17.48;81.18
66144;SHT31;52947;50.842;6.084;2022-08-19T02:36:59;17.51;81.05
66144;SHT31;52947;50.842;6.084;2022-08-19T02:39:29;17.36;81.68
66144;SHT31;52947;50.842;6.084;2022-08-19T02:41:56;17.36;81.61
66144;SHT31;52947;50.842;6.084;2022-08-19T02:44:26;17.34;81.75
66144;SHT31;52947;50.842;6.084;2022-08-19T02:46:57;17.31;82.01
66144;SHT31;52947;50.842;6.084;2022-08-19T02:49:27;17.25;82.22
66144;SHT31;52947;50.842;6.084;2022-08-19T02:52:00;17.14;82.62
66144;SHT31;52947;50.842;6.084;2022-08-19T02:54:28;17.24;82.11
66144;SHT31;52947;50.842;6.084;2022-08-19T02:56:56;17.27;82.33
66144;SHT31;52947;50.842;6.084;2022-08-19T02:59:24;17.36;81.71
66144;SHT31;52947;50.842;6.084;2022-08-19T03:01:53;17.58;81.27
66144;SHT31;52947;50.842;6.084;2022-08-19T03:04:20;17.69;80.31
66144;SHT31;52947;50.842;6.084;2022-08-19T03:06:50;17.89;79.60
66144;SHT31;52947;50.842;6.084;2022-08-19T03:09:19;17.83;79.34
66144;SHT31;52947;50.842;6.084;2022-08-19T03:11:47;17.58;80.02
66144;SHT31;52947;50.842;6.084;2022-08-19T03:14:18;17.61;80.08
66144;SHT31;52947;50.842;6.084;2022-08-19T03:16:51;17.56;80.14
66144;SHT31;52947;50.842;6.084;2022-08-19T03:19:20;17.63;79.63
66144;SHT31;52947;50.842;6.084;2022-08-19T03:21:50;17.70;79.51
66144;SHT31;52947;50.842;6.084;2022-08-19T03:24:19;17.70;79.38
66144;SHT31;52947;50.842;6.084;2022-08-19T03:26:49;17.63;79.64
66144;SHT31;52947;50.842;6.084;2022-08-19T03:29:19;17.52;80.15
66144;SHT31;52947;50.842;6.084;2022-08-19T03:31:57;17.43;79.98
66144;SHT31;52947;50.842;6.084;2022-08-19T03:34:29;17.56;80.25
66144;SHT31;52947;50.842;6.084;2022-08-19T03:37:04;17.48;79.87
66144;SHT31;52947;50.842;6.084;2022-08-19T03:39:32;17.42;80.65
66144;SHT31;52947;50.842;6.084;2022-08-19T03:42:00;17.28;80.87
66144;SHT31;52947;50.842;6.084;2022-08-19T03:44:48;17.08;82.04
66144;SHT31;52947;50.842;6.084;2022-08-19T03:47:17;16.97;82.46
66144;SHT31;52947;50.842;6.084;2022-08-19T03:49:45;16.91;82.85
66144;SHT31;52947;50.842;6.084;2022-08-19T03:52:14;16.87;82.73
66144;SHT31;52947;50.842;6.084;2022-08-19T03:54:42;16.88;83.04
66144;SHT31;52947;50.842;6.084;2022-08-19T03:57:09;16.84;83.07
66144;SHT31;52947;50.842;6.084;2022-08-19T03:59:38;17.00;81.99
66144;SHT31;52947;50.842;6.084;2022-08-19T04:02:08;17.27;81.55
66144;SHT31;52947;50.842;6.084;2022-08-19T04:04:38;17.31;81.35
66144;SHT31;52947;50.842;6.084;2022-08-19T04:07:07;17.22;81.80
66144;SHT31;52947;50.842;6.084;2022-08-19T04:09:37;17.12;82.28
66144;SHT31;52947;50.842;6.084;2022-08-19T04:12:06;17.17;82.24
66144;SHT31;52947;50.842;6.084;2022-08-19T04:14:34;17.38;81.63
66144;SHT31;52947;50.842;6.084;2022-08-19T04:17:03;17.49;80.80
66144;SHT31;52947;50.842;6.084;2022-08-19T04:19:33;17.59;80.77
66144;SHT31;52947;50.842;6.084;2022-08-19T04:22:05;17.59;81.12
66144;SHT31;52947;50.842;6.084;2022-08-19T04:24:36;17.53;81.22
66144;SHT31;52947;50.842;6.084;2022-08-19T04:27:05;17.43;81.65
66144;SHT31;52947;50.842;6.084;2022-08-19T04:29:33;17.48;81.34
66144;SHT31;52947;50.842;6.084;2022-08-19T04:32:02;17.46;81.69
66144;SHT31;52947;50.842;6.084;2022-08-19T04:34:36;17.63;81.10
66144;SHT31;52947;50.842;6.084;2022-08-19T04:37:25;17.53;81.56
66144;SHT31;52947;50.842;6.084;2022-08-19T04:40:05;17.58;81.37
66144;SHT31;52947;50.842;6.084;2022-08-19T04:42:51;17.51;81.95
66144;SHT31;52947;50.842;6.084;2022-08-19T04:45:20;17.59;81.23
66144;SHT31;52947;50.842;6.084;2022-08-19T04:47:49;17.76;81.57
66144;SHT31;52947;50.842;6.084;2022-08-19T04:50:40;18.23;79.55
66144;SHT31;52947;50.842;6.084;2022-08-19T04:53:08;17.89;81.14
66144;SHT31;52947;50.842;6.084;2022-08-19T04:55:40;17.89;80.82
66144;SHT31;52947;50.842;6.084;2022-08-19T04:58:08;17.79;81.79
66144;SHT31;52947;50.842;6.084;2022-08-19T05:00:38;17.79;81.37
66144;SHT31;52947;50.842;6.084;2022-08-19T05:03:06;17.79;81.43
66144;SHT31;52947;50.842;6.084;2022-08-19T05:05:38;17.82;81.43
66144;SHT31;52947;50.842;6.084;2022-08-19T05:08:11;17.96;80.97
66144;SHT31;52947;50.842;6.084;2022-08-19T05:10:42;18.07;80.32
66144;SHT31;52947;50.842;6.084;2022-08-19T05:13:11;18.06;80.68
66144;SHT31;52947;50.842;6.084;2022-08-19T05:15:38;18.03;80.83
66144;SHT31;52947;50.842;6.084;2022-08-19T05:18:06;18.06;81.48
66144;SHT31;52947;50.842;6.084;2022-08-19T05:20:52;17.90;81.35
66144;SHT31;52947;50.842;6.084;2022-08-19T05:23:37;17.94;81.73
66144;SHT31;52947;50.842;6.084;2022-08-19T05:26:06;17.76;82.51
66144;SHT31;52947;50.842;6.084;2022-08-19T05:28:36;17.78;82.40
66144;SHT31;52947;50.842;6.084;2022-08-19T05:31:04;17.72;82.65
66144;SHT31;52947;50.842;6.084;2022-08-19T05:33:32;17.75;82.42
66144;SHT31;52947;50.842;6.084;2022-08-19T05:36:01;17.75;82.83
66144;SHT31;52947;50.842;6.084;2022-08-19T05:38:29;17.75;82.57
66144;SHT31;52947;50.842;6.084;2022-08-19T05:40:57;17.82;82.50
66144;SHT31;52947;50.842;6.084;2022-08-19T05:43:26;17.94;82.36
66144;SHT31;52947;50.842;6.084;2022-08-19T05:45:54;18.09;82.00
66144;SHT31;52947;50.842;6.084;2022-08-19T05:48:22;18.33;80.94
66144;SHT31;52947;50.842;6.084;2022-08-19T05:50:50;18.64;80.10
66144;SHT31;52947;50.842;6.084;2022-08-19T05:53:18;19.06;78.65
66144;SHT31;52947;50.842;6.084;2022-08-19T05:55:46;19.52;77.07
66144;SHT31;52947;50.842;6.084;2022-08-19T05:58:14;19.80;75.93
66144;SHT31;52947;50.842;6.084;2022-08-19T06:00:44;20.14;74.79
66144;SHT31;52947;50.842;6.084;2022-08-19T06:03:11;20.21;74.18
66144;SHT31;52947;50.842;6.084;2022-08-19T06:05:40;20.05;74.55
66144;SHT31;52947;50.842;6.084;2022-08-19T06:08:17;19.81;74.99
66144;SHT31;52947;50.842;6.084;2022-08-19T06:10:48;19.97;74.21
66144;SHT31;52947;50.842;6.084;2022-08-19T06:13:16;19.87;75.05
66144;SHT31;52947;50.842;6.084;2022-08-19T06:15:47;19.98;74.60
66144;SHT31;52947;50.842;6.084;2022-08-19T06:18:15;20.07;74.15
66144;SHT31;52947;50.842;6.084;2022-08-19T06:20:43;19.98;74.14
66144;SHT31;52947;50.842;6.084;2022-08-19T06:23:21;20.34;73.11
66144;SHT31;52947;50.842;6.084;2022-08-19T06:25:50;20.68;71.42
66144;SHT31;52947;50.842;6.084;2022-08-19T06:28:17;21.07;70.32
66144;SHT31;52947;50.842;6.084;2022-08-19T06:30:47;21.69;68.82
66144;SHT31;52947;50.842;6.084;2022-08-19T06:33:15;22.50;67.04
66144;SHT31;52947;50.842;6.084;2022-08-19T06:35:44;23.21;64.75
66144;SHT31;52947;50.842;6.084;2022-08-19T06:38:12;22.88;63.68
66144;SHT31;52947;50.842;6.084;2022-08-19T06:40:40;22.40;65.44
66144;SHT31;52947;50.842;6.084;2022-08-19T06:43:12;22.22;66.42
66144;SHT31;52947;50.842;6.084;2022-08-19T06:45:44;22.17;66.88
66144;SHT31;52947;50.842;6.084;2022-08-19T06:48:14;23.38;63.52
66144;SHT31;52947;50.842;6.084;2022-08-19T06:50:43;24.50;60.89
66144;SHT31;52947;50.842;6.084;2022-08-19T06:53:12;25.36;59.48
66144;SHT31;52947;50.842;6.084;2022-08-19T06:55:40;25.62;58.45
66144;SHT31;52947;50.842;6.084;2022-08-19T06:58:08;24.85;59.21
66144;SHT31;52947;50.842;6.084;2022-08-19T07:00:36;24.06;60.55
66144;SHT31;52947;50.842;6.084;2022-08-19T07:03:04;23.55;61.99
66144;SHT31;52947;50.842;6.084;2022-08-19T07:05:39;23.55;62.37
66144;SHT31;52947;50.842;6.084;2022-08-19T07:08:11;23.62;62.44
66144;SHT31;52947;50.842;6.084;2022-08-19T07:10:43;24.09;61.27
66144;SHT31;52947;50.842;6.084;2022-08-19T07:13:11;24.30;61.16
66144;SHT31;52947;50.842;6.084;2022-08-19T07:15:39;24.36;61.11
66144;SHT31;52947;50.842;6.084;2022-08-19T07:18:08;24.41;61.19
66144;SHT31;52947;50.842;6.084;2022-08-19T07:20:39;24.95;60.29
66144;SHT31;52947;50.842;6.084;2022-08-19T07:23:07;25.22;59.23
66144;SHT31;52947;50.842;6.084;2022-08-19T07:25:42;24.71;59.86
66144;SHT31;52947;50.842;6.084;2022-08-19T07:28:18;23.59;62.43
66144;SHT31;52947;50.842;6.084;2022-08-19T07:30:51;23.45;63.43
66144;SHT31;52947;50.842;6.084;2022-08-19T07:33:19;24.72;60.72
66144;SHT31;52947;50.842;6.084;2022-08-19T07:35:49;24.50;59.95
66144;SHT31;52947;50.842;6.084;2022-08-19T07:38:17;24.44;59.91
66144;SHT31;52947;50.842;6.084;2022-08-19T07:40:45;24.78;59.38
66144;SHT31;52947;50.842;6.084;2022-08-19T07:43:13;25.07;58.64
66144;SHT31;52947;50.842;6.084;2022-08-19T07:45:44;24.71;58.68
66144;SHT31;52947;50.842;6.084;2022-08-19T07:48:13;24.34;59.20
66144;SHT31;52947;50.842;6.084;2022-08-19T07:50:42;24.16;60.24
66144;SHT31;52947;50.842;6.084;2022-08-19T07:53:11;23.61;61.32
66144;SHT31;52947;50.842;6.084;2022-08-19T07:55:39;24.16;60.17
66144;SHT31;52947;50.842;6.084;2022-08-19T07:58:11;24.54;59.57
66144;SHT31;52947;50.842;6.084;2022-08-19T08:00:40;24.79;58.54
66144;SHT31;52947;50.842;6.084;2022-08-19T08:03:09;25.50;57.77
66144;SHT31;52947;50.842;6.084;2022-08-19T08:05:37;26.51;55.94
66144;SHT31;52947;50.842;6.084;2022-08-19T08:08:23;26.71;55.06
66144;SHT31;52947;50.842;6.084;2022-08-19T08:11:16;27.82;52.35
66144;SHT31;52947;50.842;6.084;2022-08-19T08:13:47;28.29;51.90
66144;SHT31;52947;50.842;6.084;2022-08-19T08:16:30;28.56;51.73
66144;SHT31;52947;50.842;6.084;2022-08-19T08:19:00;29.34;49.26
66144;SHT31;52947;50.842;6.084;2022-08-19T08:21:33;29.28;48.92
66144;SHT31;52947;50.842;6.084;2022-08-19T08:24:02;28.45;50.53
66144;SHT31;52947;50.842;6.084;2022-08-19T08:26:30;27.88;51.72
66144;SHT31;52947;50.842;6.084;2022-08-19T08:29:00;27.77;51.80
66144;SHT31;52947;50.842;6.084;2022-08-19T08:31:38;28.41;50.37
66144;SHT31;52947;50.842;6.084;2022-08-19T08:34:07;27.76;51.25
66144;SHT31;52947;50.842;6.084;2022-08-19T08:36:36;27.13;52.76
66144;SHT31;52947;50.842;6.084;2022-08-19T08:39:10;28.00;51.44
66144;SHT31;52947;50.842;6.084;2022-08-19T08:41:44;27.80;51.05
66144;SHT31;52947;50.842;6.084;2022-08-19T08:44:16;28.64;50.34
66144;SHT31;52947;50.842;6.084;2022-08-19T08:46:49;27.76;50.38
66144;SHT31;52947;50.842;6.084;2022-08-19T08:49:28;26.55;53.27
66144;SHT31;52947;50.842;6.084;2022-08-19T08:52:02;26.31;53.90
66144;SHT31;52947;50.842;6.084;2022-08-19T08:54:38;26.72;53.31
66144;SHT31;52947;50.842;6.084;2022-08-19T08:57:25;27.85;51.99
66144;SHT31;52947;50.842;6.084;2022-08-19T09:00:00;28.55;49.87
66144;SHT31;52947;50.842;6.084;2022-08-19T09:02:31;29.30;49.50
66144;SHT31;52947;50.842;6.084;2022-08-19T09:04:59;29.65;48.59
66144;SHT31;52947;50.842;6.084;2022-08-19T09:07:34;28.87;49.51
66144;SHT31;52947;50.842;6.084;2022-08-19T09:10:18;28.72;49.27
66144;SHT31;52947;50.842;6.084;2022-08-19T09:12:58;29.59;48.27
66144;SHT31;52947;50.842;6.084;2022-08-19T09:15:39;28.97;48.43
66144;SHT31;52947;50.842;6.084;2022-08-19T09:18:08;29.14;48.53
66144;SHT31;52947;50.842;6.084;2022-08-19T09:20:45;29.45;48.40
66144;SHT31;52947;50.842;6.084;2022-08-19T09:23:15;30.03;47.57
66144;SHT31;52947;50.842;6.084;2022-08-19T09:25:44;30.19;47.14
66144;SHT31;52947;50.842;6.084;2022-08-19T09:28:12;30.39;46.67
66144;SHT31;52947;50.842;6.084;2022-08-19T09:30:52;29.98;46.96
66144;SHT31;52947;50.842;6.084;2022-08-19T09:33:20;30.26;46.45
66144;SHT31;52947;50.842;6.084;2022-08-19T09:35:48;30.52;46.90
66144;SHT31;52947;50.842;6.084;2022-08-19T09:38:19;31.04;46.25
66144;SHT31;52947;50.842;6.084;2022-08-19T09:40:49;30.43;46.96
66144;SHT31;52947;50.842;6.084;2022-08-19T09:43:19;30.98;45.87
66144;SHT31;52947;50.842;6.084;2022-08-19T09:46:09;31.01;45.75
66144;SHT31;52947;50.842;6.084;2022-08-19T09:48:40;31.55;45.24
66144;SHT31;52947;50.842;6.084;2022-08-19T09:51:11;30.61;46.27
66144;SHT31;52947;50.842;6.084;2022-08-19T09:53:43;29.48;47.80
66144;SHT31;52947;50.842;6.084;2022-08-19T09:56:13;28.80;49.18
66144;SHT31;52947;50.842;6.084;2022-08-19T09:58:45;28.94;49.51
66144;SHT31;52947;50.842;6.084;2022-08-19T10:01:16;29.15;48.14
66144;SHT31;52947;50.842;6.084;2022-08-19T10:03:48;29.76;48.19
66144;SHT31;52947;50.842;6.084;2022-08-19T10:06:18;30.68;46.40
66144;SHT31;52947;50.842;6.084;2022-08-19T10:09:08;30.83;45.44
66144;SHT31;52947;50.842;6.084;2022-08-19T10:11:42;30.26;46.50
66144;SHT31;52947;50.842;6.084;2022-08-19T10:14:20;31.10;45.38
66144;SHT31;52947;50.842;6.084;2022-08-19T10:16:50;30.47;45.44
66144;SHT31;52947;50.842;6.084;2022-08-19T10:19:18;30.20;46.31
66144;SHT31;52947;50.842;6.084;2022-08-19T10:21:51;30.10;46.16
66144;SHT31;52947;50.842;6.084;2022-08-19T10:24:26;31.36;44.92
66144;SHT31;52947;50.842;6.084;2022-08-19T10:26:56;31.56;44.34
66144;SHT31;52947;50.842;6.084;2022-08-19T10:29:25;30.85;43.93
66144;SHT31;52947;50.842;6.084;2022-08-19T10:31:59;31.01;44.64
66144;SHT31;52947;50.842;6.084;2022-08-19T10:34:29;30.50;45.04
66144;SHT31;52947;50.842;6.084;2022-08-19T10:36:58;30.37;45.82
66144;SHT31;52947;50.842;6.084;2022-08-19T10:39:28;30.78;45.21
66144;SHT31;52947;50.842;6.084;2022-08-19T10:42:08;30.09;46.31
66144;SHT31;52947;50.842;6.084;2022-08-19T10:44:37;30.73;45.53
66144;SHT31;52947;50.842;6.084;2022-08-19T10:47:05;31.72;44.12
66144;SHT31;52947;50.842;6.084;2022-08-19T10:49:51;31.31;43.71
66144;SHT31;52947;50.842;6.084;2022-08-19T10:52:38;31.55;43.72
66144;SHT31;52947;50.842;6.084;2022-08-19T10:55:17;30.44;46.11
66144;SHT31;52947;50.842;6.084;2022-08-19T10:58:10;31.59;44.43
66144;SHT31;52947;50.842;6.084;2022-08-19T11:00:39;31.07;44.81
66144;SHT31;52947;50.842;6.084;2022-08-19T11:03:09;30.73;45.09
66144;SHT31;52947;50.842;6.084;2022-08-19T11:05:37;30.73;45.67
66144;SHT31;52947;50.842;6.084;2022-08-19T11:08:06;30.30;45.95
66144;SHT31;52947;50.842;6.084;2022-08-19T11:10:51;29.07;47.72
66144;SHT31;52947;50.842;6.084;2022-08-19T11:13:27;30.43;46.70
66144;SHT31;52947;50.842;6.084;2022-08-19T11:15:59;30.81;45.06
66144;SHT31;52947;50.842;6.084;2022-08-19T11:18:34;31.25;44.65
66144;SHT31;52947;50.842;6.084;2022-08-19T11:21:07;31.24;44.28
66144;SHT31;52947;50.842;6.084;2022-08-19T11:23:35;31.02;44.82
66144;SHT31;52947;50.842;6.084;2022-08-19T11:26:03;31.62;43.65
66144;SHT31;52947;50.842;6.084;2022-08-19T11:28:34;31.87;43.71
66144;SHT31;52947;50.842;6.084;2022-08-19T11:31:02;31.56;43.47
66144;SHT31;52947;50.842;6.084;2022-08-19T11:33:30;31.08;44.50
66144;SHT31;52947;50.842;6.084;2022-08-19T11:35:59;30.75;44.73
66144;SHT31;52947;50.842;6.084;2022-08-19T11:38:27;30.78;44.97
66144;SHT31;52947;50.842;6.084;2022-08-19T11:40:56;29.61;46.91
66144;SHT31;52947;50.842;6.084;2022-08-19T11:43:24;30.14;45.75
66144;SHT31;52947;50.842;6.084;2022-08-19T11:45:55;28.90;47.52
66144;SHT31;52947;50.842;6.084;2022-08-19T11:48:24;28.86;48.68
66144;SHT31;52947;50.842;6.084;2022-08-19T11:50:53;28.59;48.91
66144;SHT31;52947;50.842;6.084;2022-08-19T11:53:22;28.64;48.41
66144;SHT31;52947;50.842;6.084;2022-08-19T11:55:53;29.61;46.26
66144;SHT31;52947;50.842;6.084;2022-08-19T11:58:22;29.99;46.09
66144;SHT31;52947;50.842;6.084;2022-08-19T12:00:51;30.78;44.85
66144;SHT31;52947;50.842;6.084;2022-08-19T12:03:21;31.29;44.09
66144;SHT31;52947;50.842;6.084;2022-08-19T12:05:49;30.27;44.93
66144;SHT31;52947;50.842;6.084;2022-08-19T12:08:18;29.68;45.71
66144;SHT31;52947;50.842;6.084;2022-08-19T12:10:46;29.42;46.20
66144;SHT31;52947;50.842;6.084;2022-08-19T12:13:14;30.13;45.63
66144;SHT31;52947;50.842;6.084;2022-08-19T12:15:46;30.39;44.68
66144;SHT31;52947;50.842;6.084;2022-08-19T12:18:14;30.74;44.49
66144;SHT31;52947;50.842;6.084;2022-08-19T12:20:44;31.05;44.21
66144;SHT31;52947;50.842;6.084;2022-08-19T12:23:12;31.12;42.58
66144;SHT31;52947;50.842;6.084;2022-08-19T12:25:44;30.95;42.84
66144;SHT31;52947;50.842;6.084;2022-08-19T12:28:14;31.02;41.27
66144;SHT31;52947;50.842;6.084;2022-08-19T12:30:42;31.16;41.31
66144;SHT31;52947;50.842;6.084;2022-08-19T12:33:10;30.78;41.57
66144;SHT31;52947;50.842;6.084;2022-08-19T12:35:40;31.24;41.28
66144;SHT31;52947;50.842;6.084;2022-08-19T12:38:13;31.11;41.55
66144;SHT31;52947;50.842;6.084;2022-08-19T12:40:45;30.78;42.51
66144;SHT31;52947;50.842;6.084;2022-08-19T12:43:13;30.52;42.62
66144;SHT31;52947;50.842;6.084;2022-08-19T12:45:42;30.90;42.66
66144;SHT31;52947;50.842;6.084;2022-08-19T12:48:13;29.66;44.41
66144;SHT31;52947;50.842;6.084;2022-08-19T12:51:00;28.83;46.10
66144;SHT31;52947;50.842;6.084;2022-08-19T12:53:30;28.51;47.59
66144;SHT31;52947;50.842;6.084;2022-08-19T12:56:00;29.31;46.61
66144;SHT31;52947;50.842;6.084;2022-08-19T12:58:28;28.29;47.66
66144;SHT31;52947;50.842;6.084;2022-08-19T13:00:56;27.77;48.41
66144;SHT31;52947;50.842;6.084;2022-08-19T13:03:24;28.55;47.00
66144;SHT31;52947;50.842;6.084;2022-08-19T13:05:55;29.11;46.80
66144;SHT31;52947;50.842;6.084;2022-08-19T13:08:24;28.80;47.01
66144;SHT31;52947;50.842;6.084;2022-08-19T13:10:53;27.84;49.02
66144;SHT31;52947;50.842;6.084;2022-08-19T13:13:22;27.61;49.34
66144;SHT31;52947;50.842;6.084;2022-08-19T13:15:51;27.09;50.40
66144;SHT31;52947;50.842;6.084;2022-08-19T13:18:19;26.93;51.00
66144;SHT31;52947;50.842;6.084;2022-08-19T13:20:48;26.73;51.47
66144;SHT31;52947;50.842;6.084;2022-08-19T13:23:18;27.62;49.60
66144;SHT31;52947;50.842;6.084;2022-08-19T13:25:56;28.09;48.77
66144;SHT31;52947;50.842;6.084;2022-08-19T13:28:25;28.82;47.70
66144;SHT31;52947;50.842;6.084;2022-08-19T13:31:15;29.17;47.09
66144;SHT31;52947;50.842;6.084;2022-08-19T13:34:01;28.59;47.36
66144;SHT31;52947;50.842;6.084;2022-08-19T13:36:29;28.89;47.45
66144;SHT31;52947;50.842;6.084;2022-08-19T13:38:57;28.64;47.73
66144;SHT31;52947;50.842;6.084;2022-08-19T13:41:26;28.92;48.04
66144;SHT31;52947;50.842;6.084;2022-08-19T13:43:55;28.39;48.60
66144;SHT31;52947;50.842;6.084;2022-08-19T13:46:23;27.80;50.77
66144;SHT31;52947;50.842;6.084;2022-08-19T13:48:51;28.13;50.28
66144;SHT31;52947;50.842;6.084;2022-08-19T13:51:18;28.19;50.75
66144;SHT31;52947;50.842;6.084;2022-08-19T13:53:46;27.85;50.28
66144;SHT31;52947;50.842;6.084;2022-08-19T13:56:17;27.53;51.19
66144;SHT31;52947;50.842;6.084;2022-08-19T13:58:53;27.40;51.72
66144;SHT31;52947;50.842;6.084;2022-08-19T14:01:25;27.20;52.11
66144;SHT31;52947;50.842;6.084;2022-08-19T14:03:52;27.40;52.04
66144;SHT31;52947;50.842;6.084;2022-08-19T14:06:20;27.07;52.52
66144;SHT31;52947;50.842;6.084;2022-08-19T14:08:49;26.89;53.29
66144;SHT31;52947;50.842;6.084;2022-08-19T14:11:17;26.95;52.90
66144;SHT31;52947;50.842;6.084;2022-08-19T14:13:44;26.80;53.52
66144;SHT31;52947;50.842;6.084;2022-08-19T14:16:14;26.68;53.65
66144;SHT31;52947;50.842;6.084;2022-08-19T14:18:42;26.53;53.90
66144;SHT31;52947;50.842;6.084;2022-08-19T14:21:15;26.39;54.36
66144;SHT31;52947;50.842;6.084;2022-08-19T14:23:43;26.58;54.24
66144;SHT31;52947;50.842;6.084;2022-08-19T14:26:13;26.25;54.73
66144;SHT31;52947;50.842;6.084;2022-08-19T14:28:42;26.10;55.55
66144;SHT31;52947;50.842;6.084;2022-08-19T14:31:12;26.13;55.41
66144;SHT31;52947;50.842;6.084;2022-08-19T14:33:44;26.18;55.34
66144;SHT31;52947;50.842;6.084;2022-08-19T14:36:12;26.07;55.73
66144;SHT31;52947;50.842;6.084;2022-08-19T14:38:41;26.04;55.89
66144;SHT31;52947;50.842;6.084;2022-08-19T14:41:12;25.93;56.47
66144;SHT31;52947;50.842;6.084;2022-08-19T14:43:40;25.74;57.22
66144;SHT31;52947;50.842;6.084;2022-08-19T14:46:08;25.73;57.93
66144;SHT31;52947;50.842;6.084;2022-08-19T14:48:37;25.67;58.16
66144;SHT31;52947;50.842;6.084;2022-08-19T14:51:09;25.65;58.71
66144;SHT31;52947;50.842;6.084;2022-08-19T14:53:37;25.47;59.24
66144;SHT31;52947;50.842;6.084;2022-08-19T14:56:08;25.47;59.12
66144;SHT31;52947;50.842;6.084;2022-08-19T14:58:37;25.39;59.49
66144;SHT31;52947;50.842;6.084;2022-08-19T15:01:07;25.39;59.32
66144;SHT31;52947;50.842;6.084;2022-08-19T15:03:35;25.46;59.52
66144;SHT31;52947;50.842;6.084;2022-08-19T15:06:04;25.54;58.78
66144;SHT31;52947;50.842;6.084;2022-08-19T15:08:35;25.73;59.25
66144;SHT31;52947;50.842;6.084;2022-08-19T15:11:07;25.76;58.96
66144;SHT31;52947;50.842;6.084;2022-08-19T15:13:36;25.65;59.57
66144;SHT31;52947;50.842;6.084;2022-08-19T15:16:04;25.65;59.34
66144;SHT31;52947;50.842;6.084;2022-08-19T15:18:43;25.59;59.35
66144;SHT31;52947;50.842;6.084;2022-08-19T15:21:12;25.67;59.45
66144;SHT31;52947;50.842;6.084;2022-08-19T15:23:42;25.73;59.50
66144;SHT31;52947;50.842;6.084;2022-08-19T15:26:11;25.73;59.48
66144;SHT31;52947;50.842;6.084;2022-08-19T15:28:42;25.79;59.46
66144;SHT31;52947;50.842;6.084;2022-08-19T15:31:10;25.71;59.65
66144;SHT31;52947;50.842;6.084;2022-08-19T15:33:55;25.70;59.44
66144;SHT31;52947;50.842;6.084;2022-08-19T15:36:24;25.66;59.23
66144;SHT31;52947;50.842;6.084;2022-08-19T15:38:54;25.69;59.41
66144;SHT31;52947;50.842;6.084;2022-08-19T15:41:23;25.80;59.59
66144;SHT31;52947;50.842;6.084;2022-08-19T15:43:54;25.83;59.81
66144;SHT31;52947;50.842;6.084;2022-08-19T15:46:25;25.84;59.67
66144;SHT31;52947;50.842;6.084;2022-08-19T15:48:55;25.69;59.84
66144;SHT31;52947;50.842;6.084;2022-08-19T15:51:27;25.74;59.74
66144;SHT31;52947;50.842;6.084;2022-08-19T15:53:58;25.74;59.15